sensor_id;sensor_type;location;lat;lon;timestamp;pressure;altitude;pressure_sealevel;temperature;humidity
79690;BME280;69156;55.932;-3.238;2023-04-24T00:02:17;100248.01;;;7.08;48.70
79690;BME280;69156;55.932;-3.238;2023-04-24T00:04:43;100246.26;;;6.69;48.64
79690;BME280;69156;55.932;-3.238;2023-04-24T00:07:08;100246.69;;;6.77;48.89
79690;BME280;69156;55.932;-3.238;2023-04-24T00:09:34;100247.49;;;6.53;49.19
79690;BME280;69156;55.932;-3.238;2023-04-24T00:11:59;100248.51;;;6.50;49.32
79690;BME280;69156;55.932;-3.238;2023-04-24T00:14:25;100247.87;;;6.55;49.27
79690;BME280;69156;55.932;-3.238;2023-04-24T00:16:50;100250.95;;;6.40;49.75
79690;BME280;69156;55.932;-3.238;2023-04-24T00:19:15;100255.00;;;6.80;49.42
79690;BME280;69156;55.932;-3.238;2023-04-24T00:21:40;100252.22;;;6.71;49.11
79690;BME280;69156;55.932;-3.238;2023-04-24T00:24:06;100250.12;;;6.63;48.48
79690;BME280;69156;55.932;-3.238;2023-04-24T00:26:31;100255.40;;;6.57;49.21
79690;BME280;69156;55.932;-3.238;2023-04-24T00:28:56;100256.04;;;6.49;49.46
79690;BME280;69156;55.932;-3.238;2023-04-24T00:31:21;100258.79;;;6.65;48.90
79690;BME280;69156;55.932;-3.238;2023-04-24T00:33:46;100262.12;;;6.54;49.73
79690;BME280;69156;55.932;-3.238;2023-04-24T00:36:11;100260.65;;;6.56;49.85
79690;BME280;69156;55.932;-3.238;2023-04-24T00:38:37;100260.19;;;6.71;49.79
79690;BME280;69156;55.932;-3.238;2023-04-24T00:41:02;100257.34;;;6.47;49.33
79690;BME280;69156;55.932;-3.238;2023-04-24T00:43:27;100258.85;;;6.63;48.40
79690;BME280;69156;55.932;-3.238;2023-04-24T00:45:52;100258.56;;;6.60;48.88
79690;BME280;69156;55.932;-3.238;2023-04-24T00:48:18;100262.44;;;6.32;48.68
79690;BME280;69156;55.932;-3.238;2023-04-24T00:50:43;100262.42;;;6.46;48.36
79690;BME280;69156;55.932;-3.238;2023-04-24T00:53:08;100264.99;;;6.49;49.02
79690;BME280;69156;55.932;-3.238;2023-04-24T00:55:34;100267.73;;;6.43;49.21
79690;BME280;69156;55.932;-3.238;2023-04-24T00:58:00;100271.99;;;6.30;49.34
79690;BME280;69156;55.932;-3.238;2023-04-24T01:00:26;100268.85;;;6.21;49.07
79690;BME280;69156;55.932;-3.238;2023-04-24T01:02:52;100270.11;;;6.42;49.41
79690;BME280;69156;55.932;-3.238;2023-04-24T01:05:16;100270.88;;;6.49;48.48
79690;BME280;69156;55.932;-3.238;2023-04-24T01:07:45;100268.23;;;6.19;48.81
79690;BME280;69156;55.932;-3.238;2023-04-24T01:10:09;100272.11;;;6.35;48.87
79690;BME280;69156;55.932;-3.238;2023-04-24T01:12:33;100275.66;;;6.04;49.23
79690;BME280;69156;55.932;-3.238;2023-04-24T01:14:59;100273.86;;;6.15;49.59
79690;BME280;69156;55.932;-3.238;2023-04-24T01:17:25;100275.06;;;6.18;49.62
79690;BME280;69156;55.932;-3.238;2023-04-24T01:19:51;100281.33;;;6.31;48.97
79690;BME280;69156;55.932;-3.238;2023-04-24T01:22:17;100279.81;;;6.23;48.93
79690;BME280;69156;55.932;-3.238;2023-04-24T01:24:43;100279.70;;;5.96;49.02
79690;BME280;69156;55.932;-3.238;2023-04-24T01:27:10;100281.30;;;6.04;49.44
79690;BME280;69156;55.932;-3.238;2023-04-24T01:29:34;100284.45;;;5.89;49.72
79690;BME280;69156;55.932;-3.238;2023-04-24T01:31:59;100280.96;;;6.11;49.14
79690;BME280;69156;55.932;-3.238;2023-04-24T01:34:25;100285.51;;;5.98;49.35
79690;BME280;69156;55.932;-3.238;2023-04-24T01:36:50;100295.96;;;6.07;49.19
79690;BME280;69156;55.932;-3.238;2023-04-24T01:39:15;100306.09;;;6.00;49.29
79690;BME280;69156;55.932;-3.238;2023-04-24T01:41:40;100302.34;;;5.86;49.53
79690;BME280;69156;55.932;-3.238;2023-04-24T01:44:06;100302.40;;;5.77;49.98
79690;BME280;69156;55.932;-3.238;2023-04-24T01:46:31;100304.34;;;5.79;50.10
79690;BME280;69156;55.932;-3.238;2023-04-24T01:48:56;100307.11;;;5.69;50.58
79690;BME280;69156;55.932;-3.238;2023-04-24T01:51:21;100306.25;;;5.81;50.39
79690;BME280;69156;55.932;-3.238;2023-04-24T01:53:47;100311.15;;;5.82;50.31
79690;BME280;69156;55.932;-3.238;2023-04-24T01:56:12;100311.63;;;5.65;50.18
79690;BME280;69156;55.932;-3.238;2023-04-24T01:58:38;100314.19;;;5.64;50.77
79690;BME280;69156;55.932;-3.238;2023-04-24T02:01:03;100315.34;;;5.75;50.21
79690;BME280;69156;55.932;-3.238;2023-04-24T02:03:28;100313.39;;;5.57;50.59
79690;BME280;69156;55.932;-3.238;2023-04-24T02:05:54;100315.47;;;5.57;50.82
79690;BME280;69156;55.932;-3.238;2023-04-24T02:08:22;100314.56;;;5.90;50.30
79690;BME280;69156;55.932;-3.238;2023-04-24T02:10:47;100315.03;;;5.59;50.31
79690;BME280;69156;55.932;-3.238;2023-04-24T02:13:13;100317.71;;;5.26;50.97
79690;BME280;69156;55.932;-3.238;2023-04-24T02:15:38;100316.60;;;5.34;51.35
79690;BME280;69156;55.932;-3.238;2023-04-24T02:18:04;100319.81;;;5.33;51.29
79690;BME280;69156;55.932;-3.238;2023-04-24T02:20:29;100319.14;;;5.27;51.61
79690;BME280;69156;55.932;-3.238;2023-04-24T02:22:54;100319.42;;;5.38;51.39
79690;BME280;69156;55.932;-3.238;2023-04-24T02:25:20;100320.98;;;5.21;51.71
79690;BME280;69156;55.932;-3.238;2023-04-24T02:27:45;100320.20;;;5.15;52.04
79690;BME280;69156;55.932;-3.238;2023-04-24T02:30:11;100324.59;;;5.36;51.88
79690;BME280;69156;55.932;-3.238;2023-04-24T02:32:37;100325.54;;;5.45;52.16
79690;BME280;69156;55.932;-3.238;2023-04-24T02:35:03;100327.01;;;5.20;52.37
79690;BME280;69156;55.932;-3.238;2023-04-24T02:37:27;100331.70;;;5.29;52.42
79690;BME280;69156;55.932;-3.238;2023-04-24T02:39:55;100330.30;;;5.04;53.03
79690;BME280;69156;55.932;-3.238;2023-04-24T02:42:22;100329.39;;;5.12;52.72
79690;BME280;69156;55.932;-3.238;2023-04-24T02:44:45;100332.51;;;5.06;52.76
79690;BME280;69156;55.932;-3.238;2023-04-24T02:47:11;100337.64;;;5.15;52.56
79690;BME280;69156;55.932;-3.238;2023-04-24T02:49:40;100341.26;;;4.94;53.13
79690;BME280;69156;55.932;-3.238;2023-04-24T02:52:03;100336.92;;;5.18;52.94
79690;BME280;69156;55.932;-3.238;2023-04-24T02:54:30;100342.93;;;5.17;52.33
79690;BME280;69156;55.932;-3.238;2023-04-24T02:56:56;100344.98;;;4.95;52.52
79690;BME280;69156;55.932;-3.238;2023-04-24T02:59:24;100346.67;;;5.15;52.85
79690;BME280;69156;55.932;-3.238;2023-04-24T03:01:50;100351.73;;;5.00;52.87
79690;BME280;69156;55.932;-3.238;2023-04-24T03:04:18;100353.39;;;4.82;52.95
79690;BME280;69156;55.932;-3.238;2023-04-24T03:06:41;100353.36;;;4.95;52.83
79690;BME280;69156;55.932;-3.238;2023-04-24T03:09:06;100351.58;;;5.20;52.52
79690;BME280;69156;55.932;-3.238;2023-04-24T03:11:32;100354.51;;;5.14;52.79
79690;BME280;69156;55.932;-3.238;2023-04-24T03:14:03;100350.65;;;5.22;52.54
79690;BME280;69156;55.932;-3.238;2023-04-24T03:16:30;100349.06;;;4.84;52.52
79690;BME280;69156;55.932;-3.238;2023-04-24T03:18:58;100347.96;;;4.93;52.52
79690;BME280;69156;55.932;-3.238;2023-04-24T03:21:24;100346.31;;;4.85;52.34
79690;BME280;69156;55.932;-3.238;2023-04-24T03:23:50;100346.47;;;4.94;52.41
79690;BME280;69156;55.932;-3.238;2023-04-24T03:26:14;100344.77;;;4.80;52.43
79690;BME280;69156;55.932;-3.238;2023-04-24T03:28:44;100344.31;;;5.01;52.87
79690;BME280;69156;55.932;-3.238;2023-04-24T03:31:08;100344.36;;;4.61;52.98
79690;BME280;69156;55.932;-3.238;2023-04-24T03:33:34;100342.43;;;4.73;53.12
79690;BME280;69156;55.932;-3.238;2023-04-24T03:36:00;100350.93;;;4.75;53.04
79690;BME280;69156;55.932;-3.238;2023-04-24T03:38:30;100351.62;;;4.66;52.75
79690;BME280;69156;55.932;-3.238;2023-04-24T03:40:54;100352.45;;;4.69;52.99
79690;BME280;69156;55.932;-3.238;2023-04-24T03:43:20;100351.69;;;4.64;53.15
79690;BME280;69156;55.932;-3.238;2023-04-24T03:45:45;100350.91;;;4.70;53.03
79690;BME280;69156;55.932;-3.238;2023-04-24T03:48:11;100349.36;;;4.78;52.82
79690;BME280;69156;55.932;-3.238;2023-04-24T03:50:35;100345.97;;;4.80;52.88
79690;BME280;69156;55.932;-3.238;2023-04-24T03:53:00;100352.23;;;4.84;52.82
79690;BME280;69156;55.932;-3.238;2023-04-24T03:55:26;100351.62;;;4.82;52.53
79690;BME280;69156;55.932;-3.238;2023-04-24T03:57:52;100350.54;;;4.79;52.77
79690;BME280;69156;55.932;-3.238;2023-04-24T04:00:20;100347.94;;;4.82;52.52
79690;BME280;69156;55.932;-3.238;2023-04-24T04:02:43;100349.53;;;4.90;52.78
79690;BME280;69156;55.932;-3.238;2023-04-24T04:05:10;100352.19;;;4.68;53.05
79690;BME280;69156;55.932;-3.238;2023-04-24T04:07:34;100357.77;;;4.73;52.88
79690;BME280;69156;55.932;-3.238;2023-04-24T04:10:00;100361.82;;;4.98;52.61
79690;BME280;69156;55.932;-3.238;2023-04-24T04:12:29;100365.29;;;5.01;52.74
79690;BME280;69156;55.932;-3.238;2023-04-24T04:15:03;100366.58;;;5.12;52.84
79690;BME280;69156;55.932;-3.238;2023-04-24T04:17:28;100363.92;;;5.04;52.71
79690;BME280;69156;55.932;-3.238;2023-04-24T04:19:52;100368.04;;;4.86;52.59
79690;BME280;69156;55.932;-3.238;2023-04-24T04:22:20;100369.88;;;4.94;52.81
79690;BME280;69156;55.932;-3.238;2023-04-24T04:24:46;100372.64;;;4.93;52.64
79690;BME280;69156;55.932;-3.238;2023-04-24T04:27:46;100376.18;;;5.08;52.41
79690;BME280;69156;55.932;-3.238;2023-04-24T04:29:57;100380.73;;;4.93;52.37
79690;BME280;69156;55.932;-3.238;2023-04-24T04:32:17;100385.83;;;5.09;52.43
79690;BME280;69156;55.932;-3.238;2023-04-24T04:34:42;100379.91;;;5.07;51.84
79690;BME280;69156;55.932;-3.238;2023-04-24T04:37:21;100378.59;;;5.14;52.12
79690;BME280;69156;55.932;-3.238;2023-04-24T04:40:11;100375.94;;;5.24;52.12
79690;BME280;69156;55.932;-3.238;2023-04-24T04:42:38;100382.49;;;4.89;52.16
79690;BME280;69156;55.932;-3.238;2023-04-24T04:45:04;100385.25;;;4.97;51.91
79690;BME280;69156;55.932;-3.238;2023-04-24T04:47:31;100383.18;;;5.09;51.92
79690;BME280;69156;55.932;-3.238;2023-04-24T04:49:57;100389.11;;;5.05;51.96
79690;BME280;69156;55.932;-3.238;2023-04-24T04:52:22;100392.90;;;5.09;51.79
79690;BME280;69156;55.932;-3.238;2023-04-24T04:54:51;100395.15;;;5.08;51.71
79690;BME280;69156;55.932;-3.238;2023-04-24T04:57:16;100394.11;;;4.90;51.93
79690;BME280;69156;55.932;-3.238;2023-04-24T04:59:44;100395.65;;;4.97;51.81
79690;BME280;69156;55.932;-3.238;2023-04-24T05:02:08;100401.73;;;5.07;51.35
79690;BME280;69156;55.932;-3.238;2023-04-24T05:04:32;100406.39;;;4.97;51.58
79690;BME280;69156;55.932;-3.238;2023-04-24T05:07:00;100406.02;;;4.99;51.64
79690;BME280;69156;55.932;-3.238;2023-04-24T05:09:23;100404.66;;;4.98;51.51
79690;BME280;69156;55.932;-3.238;2023-04-24T05:11:56;100404.85;;;5.14;51.46
79690;BME280;69156;55.932;-3.238;2023-04-24T05:14:23;100403.03;;;4.96;52.05
79690;BME280;69156;55.932;-3.238;2023-04-24T05:16:50;100400.33;;;4.95;51.98
79690;BME280;69156;55.932;-3.238;2023-04-24T05:19:17;100402.31;;;5.09;51.36
79690;BME280;69156;55.932;-3.238;2023-04-24T05:22:27;100405.74;;;5.27;51.26
79690;BME280;69156;55.932;-3.238;2023-04-24T05:25:05;100406.68;;;5.06;51.15
79690;BME280;69156;55.932;-3.238;2023-04-24T05:27:17;100409.90;;;4.93;51.36
79690;BME280;69156;55.932;-3.238;2023-04-24T05:29:39;100411.74;;;5.05;51.04
79690;BME280;69156;55.932;-3.238;2023-04-24T05:32:15;100414.73;;;5.10;50.81
79690;BME280;69156;55.932;-3.238;2023-04-24T05:34:44;100419.27;;;5.16;51.11
79690;BME280;69156;55.932;-3.238;2023-04-24T05:37:11;100422.85;;;5.01;50.97
79690;BME280;69156;55.932;-3.238;2023-04-24T05:39:41;100424.62;;;5.18;51.09
79690;BME280;69156;55.932;-3.238;2023-04-24T05:42:04;100419.73;;;5.19;50.64
79690;BME280;69156;55.932;-3.238;2023-04-24T05:44:30;100417.56;;;5.21;50.54
79690;BME280;69156;55.932;-3.238;2023-04-24T05:46:56;100419.00;;;4.99;50.58
79690;BME280;69156;55.932;-3.238;2023-04-24T05:49:27;100415.93;;;5.15;50.62
79690;BME280;69156;55.932;-3.238;2023-04-24T05:51:48;100417.45;;;5.21;50.27
79690;BME280;69156;55.932;-3.238;2023-04-24T05:54:13;100419.56;;;4.91;50.70
79690;BME280;69156;55.932;-3.238;2023-04-24T05:56:38;100424.35;;;5.34;50.42
79690;BME280;69156;55.932;-3.238;2023-04-24T05:59:04;100425.03;;;5.10;50.62
79690;BME280;69156;55.932;-3.238;2023-04-24T06:01:30;100429.40;;;5.20;50.13
79690;BME280;69156;55.932;-3.238;2023-04-24T06:03:57;100435.13;;;5.45;50.35
79690;BME280;69156;55.932;-3.238;2023-04-24T06:06:29;100438.33;;;5.42;50.21
79690;BME280;69156;55.932;-3.238;2023-04-24T06:08:52;100441.07;;;5.44;49.94
79690;BME280;69156;55.932;-3.238;2023-04-24T06:11:19;100433.17;;;5.42;50.29
79690;BME280;69156;55.932;-3.238;2023-04-24T06:13:45;100431.21;;;5.33;49.68
79690;BME280;69156;55.932;-3.238;2023-04-24T06:16:11;100442.59;;;5.55;49.35
79690;BME280;69156;55.932;-3.238;2023-04-24T06:18:36;100447.07;;;5.72;48.98
79690;BME280;69156;55.932;-3.238;2023-04-24T06:21:02;100451.49;;;5.99;48.41
79690;BME280;69156;55.932;-3.238;2023-04-24T06:23:27;100452.71;;;6.03;47.73
79690;BME280;69156;55.932;-3.238;2023-04-24T06:25:53;100455.57;;;6.36;47.65
79690;BME280;69156;55.932;-3.238;2023-04-24T06:28:19;100454.56;;;6.56;47.37
79690;BME280;69156;55.932;-3.238;2023-04-24T06:30:44;100449.86;;;6.57;46.77
79690;BME280;69156;55.932;-3.238;2023-04-24T06:33:09;100453.91;;;6.61;45.98
79690;BME280;69156;55.932;-3.238;2023-04-24T06:35:36;100453.34;;;6.43;46.25
79690;BME280;69156;55.932;-3.238;2023-04-24T06:38:02;100461.76;;;6.38;46.58
79690;BME280;69156;55.932;-3.238;2023-04-24T06:40:27;100465.96;;;6.55;45.26
79690;BME280;69156;55.932;-3.238;2023-04-24T06:42:52;100470.97;;;6.40;46.22
79690;BME280;69156;55.932;-3.238;2023-04-24T06:45:18;100477.12;;;6.46;45.77
79690;BME280;69156;55.932;-3.238;2023-04-24T06:47:43;100481.10;;;6.34;46.19
79690;BME280;69156;55.932;-3.238;2023-04-24T06:50:09;100485.04;;;6.53;45.91
79690;BME280;69156;55.932;-3.238;2023-04-24T06:52:34;100484.03;;;6.55;46.01
79690;BME280;69156;55.932;-3.238;2023-04-24T06:55:00;100482.44;;;6.70;45.43
79690;BME280;69156;55.932;-3.238;2023-04-24T06:57:25;100480.63;;;6.67;45.21
79690;BME280;69156;55.932;-3.238;2023-04-24T06:59:50;100482.11;;;6.86;44.93
79690;BME280;69156;55.932;-3.238;2023-04-24T07:02:16;100491.98;;;7.13;43.94
79690;BME280;69156;55.932;-3.238;2023-04-24T07:04:42;100488.49;;;7.00;44.23
79690;BME280;69156;55.932;-3.238;2023-04-24T07:07:07;100487.37;;;6.86;44.09
79690;BME280;69156;55.932;-3.238;2023-04-24T07:09:33;100493.56;;;6.65;44.67
79690;BME280;69156;55.932;-3.238;2023-04-24T07:11:58;100490.28;;;6.52;45.32
79690;BME280;69156;55.932;-3.238;2023-04-24T07:14:24;100496.21;;;6.44;44.91
79690;BME280;69156;55.932;-3.238;2023-04-24T07:16:49;100500.07;;;6.40;45.63
79690;BME280;69156;55.932;-3.238;2023-04-24T07:19:15;100502.77;;;6.23;45.82
79690;BME280;69156;55.932;-3.238;2023-04-24T07:21:40;100499.72;;;6.53;45.75
79690;BME280;69156;55.932;-3.238;2023-04-24T07:24:06;100500.60;;;6.34;46.16
79690;BME280;69156;55.932;-3.238;2023-04-24T07:26:31;100502.67;;;6.40;46.21
79690;BME280;69156;55.932;-3.238;2023-04-24T07:28:56;100505.00;;;6.53;46.14
79690;BME280;69156;55.932;-3.238;2023-04-24T07:31:21;100510.11;;;6.47;46.35
79690;BME280;69156;55.932;-3.238;2023-04-24T07:33:46;100508.89;;;6.40;46.70
79690;BME280;69156;55.932;-3.238;2023-04-24T07:36:12;100511.97;;;6.46;46.39
79690;BME280;69156;55.932;-3.238;2023-04-24T07:38:37;100507.67;;;6.68;45.96
79690;BME280;69156;55.932;-3.238;2023-04-24T07:41:02;100513.94;;;7.05;45.45
79690;BME280;69156;55.932;-3.238;2023-04-24T07:43:28;100507.09;;;6.98;45.61
79690;BME280;69156;55.932;-3.238;2023-04-24T07:45:54;100507.80;;;7.20;45.44
79690;BME280;69156;55.932;-3.238;2023-04-24T07:48:20;100508.56;;;7.32;44.12
79690;BME280;69156;55.932;-3.238;2023-04-24T07:50:45;100510.11;;;7.25;43.52
79690;BME280;69156;55.932;-3.238;2023-04-24T07:53:11;100509.16;;;7.01;43.90
79690;BME280;69156;55.932;-3.238;2023-04-24T07:55:36;100513.46;;;7.10;44.41
79690;BME280;69156;55.932;-3.238;2023-04-24T07:58:01;100510.50;;;7.04;44.71
79690;BME280;69156;55.932;-3.238;2023-04-24T08:00:26;100513.87;;;7.25;44.11
79690;BME280;69156;55.932;-3.238;2023-04-24T08:02:51;100513.79;;;7.18;43.28
79690;BME280;69156;55.932;-3.238;2023-04-24T08:05:17;100515.38;;;7.04;43.35
79690;BME280;69156;55.932;-3.238;2023-04-24T08:07:42;100519.25;;;7.33;43.83
79690;BME280;69156;55.932;-3.238;2023-04-24T08:10:09;100524.94;;;7.18;43.47
79690;BME280;69156;55.932;-3.238;2023-04-24T08:12:33;100522.97;;;7.20;43.89
79690;BME280;69156;55.932;-3.238;2023-04-24T08:14:58;100522.75;;;7.24;43.45
79690;BME280;69156;55.932;-3.238;2023-04-24T08:17:24;100527.54;;;7.37;43.02
79690;BME280;69156;55.932;-3.238;2023-04-24T08:19:49;100529.56;;;7.28;42.33
79690;BME280;69156;55.932;-3.238;2023-04-24T08:22:15;100534.66;;;7.22;42.53
79690;BME280;69156;55.932;-3.238;2023-04-24T08:24:41;100537.24;;;7.24;42.29
79690;BME280;69156;55.932;-3.238;2023-04-24T08:27:08;100538.27;;;7.37;41.55
79690;BME280;69156;55.932;-3.238;2023-04-24T08:29:33;100541.77;;;7.24;41.89
79690;BME280;69156;55.932;-3.238;2023-04-24T08:31:58;100547.37;;;7.55;41.34
79690;BME280;69156;55.932;-3.238;2023-04-24T08:34:24;100542.05;;;7.55;41.15
79690;BME280;69156;55.932;-3.238;2023-04-24T08:36:49;100550.71;;;7.44;40.90
79690;BME280;69156;55.932;-3.238;2023-04-24T08:39:15;100547.77;;;7.56;41.15
79690;BME280;69156;55.932;-3.238;2023-04-24T08:41:41;100556.02;;;7.47;42.08
79690;BME280;69156;55.932;-3.238;2023-04-24T08:44:05;100556.22;;;7.55;41.82
79690;BME280;69156;55.932;-3.238;2023-04-24T08:46:30;100552.50;;;7.74;41.71
79690;BME280;69156;55.932;-3.238;2023-04-24T08:48:56;100568.62;;;7.56;41.05
79690;BME280;69156;55.932;-3.238;2023-04-24T08:51:22;100566.25;;;7.56;41.11
79690;BME280;69156;55.932;-3.238;2023-04-24T08:53:48;100559.20;;;7.92;41.02
79690;BME280;69156;55.932;-3.238;2023-04-24T08:56:13;100564.63;;;7.97;40.46
79690;BME280;69156;55.932;-3.238;2023-04-24T08:58:39;100569.50;;;8.06;40.60
79690;BME280;69156;55.932;-3.238;2023-04-24T09:01:04;100568.51;;;7.98;40.31
79690;BME280;69156;55.932;-3.238;2023-04-24T09:03:29;100564.52;;;7.78;40.90
79690;BME280;69156;55.932;-3.238;2023-04-24T09:05:55;100570.13;;;7.93;40.47
79690;BME280;69156;55.932;-3.238;2023-04-24T09:08:20;100561.20;;;7.73;40.37
79690;BME280;69156;55.932;-3.238;2023-04-24T09:10:46;100554.86;;;7.82;40.69
79690;BME280;69156;55.932;-3.238;2023-04-24T09:13:10;100557.19;;;7.93;41.13
79690;BME280;69156;55.932;-3.238;2023-04-24T09:15:36;100554.68;;;7.77;40.58
79690;BME280;69156;55.932;-3.238;2023-04-24T09:18:01;100561.77;;;7.75;40.96
79690;BME280;69156;55.932;-3.238;2023-04-24T09:20:26;100556.57;;;7.47;41.59
79690;BME280;69156;55.932;-3.238;2023-04-24T09:22:54;100559.37;;;7.64;41.75
79690;BME280;69156;55.932;-3.238;2023-04-24T09:25:17;100568.66;;;7.74;41.93
79690;BME280;69156;55.932;-3.238;2023-04-24T09:27:43;100573.23;;;7.94;41.17
79690;BME280;69156;55.932;-3.238;2023-04-24T09:30:09;100568.51;;;7.97;41.40
79690;BME280;69156;55.932;-3.238;2023-04-24T09:32:34;100566.37;;;7.86;41.54
79690;BME280;69156;55.932;-3.238;2023-04-24T09:35:09;100571.77;;;7.81;41.72
79690;BME280;69156;55.932;-3.238;2023-04-24T09:37:29;100568.20;;;8.00;41.34
79690;BME280;69156;55.932;-3.238;2023-04-24T09:40:07;100570.69;;;7.92;41.99
79690;BME280;69156;55.932;-3.238;2023-04-24T09:42:17;100574.01;;;7.93;41.46
79690;BME280;69156;55.932;-3.238;2023-04-24T09:44:43;100572.34;;;7.93;41.30
79690;BME280;69156;55.932;-3.238;2023-04-24T09:47:09;100573.42;;;7.78;41.73
79690;BME280;69156;55.932;-3.238;2023-04-24T09:49:33;100569.62;;;7.82;42.14
79690;BME280;69156;55.932;-3.238;2023-04-24T09:52:03;100576.43;;;7.74;42.31
79690;BME280;69156;55.932;-3.238;2023-04-24T09:54:24;100583.84;;;7.63;44.47
79690;BME280;69156;55.932;-3.238;2023-04-24T09:56:50;100605.31;;;7.63;46.90
79690;BME280;69156;55.932;-3.238;2023-04-24T09:59:16;100625.85;;;6.60;53.78
79690;BME280;69156;55.932;-3.238;2023-04-24T10:01:40;100637.88;;;5.94;57.57
79690;BME280;69156;55.932;-3.238;2023-04-24T10:04:05;100633.93;;;5.30;61.66
79690;BME280;69156;55.932;-3.238;2023-04-24T10:06:33;100630.56;;;5.37;62.53
79690;BME280;69156;55.932;-3.238;2023-04-24T10:08:56;100628.00;;;5.38;66.06
79690;BME280;69156;55.932;-3.238;2023-04-24T10:11:22;100630.36;;;6.00;65.15
79690;BME280;69156;55.932;-3.238;2023-04-24T10:13:47;100632.07;;;5.83;64.16
79690;BME280;69156;55.932;-3.238;2023-04-24T10:16:12;100632.28;;;5.88;62.46
79690;BME280;69156;55.932;-3.238;2023-04-24T10:18:39;100634.47;;;5.91;65.80
79690;BME280;69156;55.932;-3.238;2023-04-24T10:21:03;100631.38;;;6.13;63.93
79690;BME280;69156;55.932;-3.238;2023-04-24T10:23:30;100632.19;;;6.17;63.99
79690;BME280;69156;55.932;-3.238;2023-04-24T10:25:54;100636.34;;;6.37;63.29
79690;BME280;69156;55.932;-3.238;2023-04-24T10:28:20;100635.00;;;6.43;61.92
79690;BME280;69156;55.932;-3.238;2023-04-24T10:30:45;100633.64;;;6.83;59.49
79690;BME280;69156;55.932;-3.238;2023-04-24T10:33:11;100631.60;;;6.95;62.37
79690;BME280;69156;55.932;-3.238;2023-04-24T10:35:43;100636.29;;;7.15;57.09
79690;BME280;69156;55.932;-3.238;2023-04-24T10:38:05;100630.60;;;6.98;60.38
79690;BME280;69156;55.932;-3.238;2023-04-24T10:40:29;100627.92;;;7.27;58.93
79690;BME280;69156;55.932;-3.238;2023-04-24T10:42:52;100631.69;;;7.47;55.85
79690;BME280;69156;55.932;-3.238;2023-04-24T10:45:17;100633.68;;;7.54;53.67
79690;BME280;69156;55.932;-3.238;2023-04-24T10:47:42;100635.26;;;7.32;55.99
79690;BME280;69156;55.932;-3.238;2023-04-24T10:50:10;100637.78;;;7.48;54.00
79690;BME280;69156;55.932;-3.238;2023-04-24T10:52:44;100643.44;;;7.53;53.92
79690;BME280;69156;55.932;-3.238;2023-04-24T10:55:01;100636.26;;;7.51;54.91
79690;BME280;69156;55.932;-3.238;2023-04-24T10:57:27;100643.61;;;7.52;53.18
79690;BME280;69156;55.932;-3.238;2023-04-24T10:59:52;100664.79;;;7.62;52.87
79690;BME280;69156;55.932;-3.238;2023-04-24T11:02:15;100671.13;;;6.78;57.37
79690;BME280;69156;55.932;-3.238;2023-04-24T11:04:41;100684.13;;;6.04;59.65
79690;BME280;69156;55.932;-3.238;2023-04-24T11:07:06;100702.54;;;5.40;61.88
79690;BME280;69156;55.932;-3.238;2023-04-24T11:09:32;100708.54;;;4.79;62.57
79690;BME280;69156;55.932;-3.238;2023-04-24T11:12:04;100697.42;;;4.90;63.94
79690;BME280;69156;55.932;-3.238;2023-04-24T11:14:22;100699.95;;;4.81;64.26
79690;BME280;69156;55.932;-3.238;2023-04-24T11:16:52;100707.42;;;4.89;65.15
79690;BME280;69156;55.932;-3.238;2023-04-24T11:19:21;100704.47;;;4.88;65.03
79690;BME280;69156;55.932;-3.238;2023-04-24T11:21:40;100715.00;;;4.88;64.47
79690;BME280;69156;55.932;-3.238;2023-04-24T11:24:23;100711.63;;;5.26;63.77
79690;BME280;69156;55.932;-3.238;2023-04-24T11:26:29;100693.56;;;5.00;66.59
79690;BME280;69156;55.932;-3.238;2023-04-24T11:29:06;100680.39;;;5.33;68.18
79690;BME280;69156;55.932;-3.238;2023-04-24T11:31:37;100672.28;;;5.32;68.35
79690;BME280;69156;55.932;-3.238;2023-04-24T11:33:46;100674.88;;;5.70;67.52
79690;BME280;69156;55.932;-3.238;2023-04-24T11:36:11;100674.83;;;5.89;67.73
79690;BME280;69156;55.932;-3.238;2023-04-24T11:38:37;100676.21;;;6.30;66.11
79690;BME280;69156;55.932;-3.238;2023-04-24T11:41:03;100673.66;;;6.44;67.50
79690;BME280;69156;55.932;-3.238;2023-04-24T11:43:29;100671.69;;;6.62;65.61
79690;BME280;69156;55.932;-3.238;2023-04-24T11:45:53;100672.09;;;6.68;61.42
79690;BME280;69156;55.932;-3.238;2023-04-24T11:48:19;100676.45;;;6.60;64.32
79690;BME280;69156;55.932;-3.238;2023-04-24T11:50:46;100679.22;;;6.85;64.77
79690;BME280;69156;55.932;-3.238;2023-04-24T11:53:10;100677.79;;;7.04;62.89
79690;BME280;69156;55.932;-3.238;2023-04-24T11:55:35;100681.70;;;7.19;63.60
79690;BME280;69156;55.932;-3.238;2023-04-24T11:58:01;100684.06;;;7.35;64.67
79690;BME280;69156;55.932;-3.238;2023-04-24T12:00:28;100684.22;;;7.43;58.94
79690;BME280;69156;55.932;-3.238;2023-04-24T12:03:02;100683.44;;;7.27;56.13
79690;BME280;69156;55.932;-3.238;2023-04-24T12:05:20;100681.18;;;7.45;57.50
79690;BME280;69156;55.932;-3.238;2023-04-24T12:07:43;100674.19;;;7.61;55.31
79690;BME280;69156;55.932;-3.238;2023-04-24T12:10:09;100676.39;;;7.82;54.02
79690;BME280;69156;55.932;-3.238;2023-04-24T12:12:33;100677.65;;;7.74;52.29
79690;BME280;69156;55.932;-3.238;2023-04-24T12:14:58;100690.51;;;7.71;54.07
79690;BME280;69156;55.932;-3.238;2023-04-24T12:17:26;100698.75;;;8.01;52.45
79690;BME280;69156;55.932;-3.238;2023-04-24T12:19:49;100732.75;;;7.13;54.89
79690;BME280;69156;55.932;-3.238;2023-04-24T12:22:14;100717.94;;;5.90;60.76
79690;BME280;69156;55.932;-3.238;2023-04-24T12:24:58;100715.43;;;5.61;62.54
79690;BME280;69156;55.932;-3.238;2023-04-24T12:27:05;100717.72;;;5.60;63.10
79690;BME280;69156;55.932;-3.238;2023-04-24T12:29:30;100715.58;;;5.59;63.96
79690;BME280;69156;55.932;-3.238;2023-04-24T12:31:55;100716.25;;;5.54;67.71
79690;BME280;69156;55.932;-3.238;2023-04-24T12:34:22;100716.65;;;5.95;65.07
79690;BME280;69156;55.932;-3.238;2023-04-24T12:36:46;100716.80;;;5.98;67.15
79690;BME280;69156;55.932;-3.238;2023-04-24T12:39:15;100717.17;;;6.09;67.61
79690;BME280;69156;55.932;-3.238;2023-04-24T12:41:37;100720.70;;;6.06;66.60
79690;BME280;69156;55.932;-3.238;2023-04-24T12:44:02;100727.19;;;5.92;67.46